sensor_id;sensor_type;location;lat;lon;timestamp;P1;durP1;ratioP1;P2;durP2;ratioP2
54139;SDS011;40046;53.254;5.900;2023-08-01T00:01:03;9.77;;;3.25;;
54139;SDS011;40046;53.254;5.900;2023-08-01T00:03:30;10.70;;;3.35;;
54139;SDS011;40046;53.254;5.900;2023-08-01T00:05:56;10.40;;;3.40;;
54139;SDS011;40046;53.254;5.900;2023-08-01T00:08:22;8.85;;;3.08;;
54139;SDS011;40046;53.254;5.900;2023-08-01T00:10:48;7.78;;;2.95;;
54139;SDS011;40046;53.254;5.900;2023-08-01T00:13:14;8.20;;;3.47;;
54139;SDS011;40046;53.254;5.900;2023-08-01T00:15:40;8.90;;;3.17;;
54139;SDS011;40046;53.254;5.900;2023-08-01T00:18:06;11.45;;;3.05;;
54139;SDS011;40046;53.254;5.900;2023-08-01T00:20:32;11.88;;;3.83;;
54139;SDS011;40046;53.254;5.900;2023-08-01T00:22:59;10.70;;;2.92;;
54139;SDS011;40046;53.254;5.900;2023-08-01T00:25:25;8.45;;;3.80;;
54139;SDS011;40046;53.254;5.900;2023-08-01T00:27:51;13.20;;;3.78;;
54139;SDS011;40046;53.254;5.900;2023-08-01T00:30:17;9.63;;;2.75;;
54139;SDS011;40046;53.254;5.900;2023-08-01T00:32:43;11.20;;;4.45;;
54139;SDS011;40046;53.254;5.900;2023-08-01T00:35:10;8.75;;;3.10;;
54139;SDS011;40046;53.254;5.900;2023-08-01T00:37:36;12.27;;;4.20;;
54139;SDS011;40046;53.254;5.900;2023-08-01T00:40:03;9.10;;;3.63;;
54139;SDS011;40046;53.254;5.900;2023-08-01T00:42:30;8.82;;;3.67;;
54139;SDS011;40046;53.254;5.900;2023-08-01T00:44:56;9.65;;;3.90;;
54139;SDS011;40046;53.254;5.900;2023-08-01T00:47:22;11.48;;;3.08;;
54139;SDS011;40046;53.254;5.900;2023-08-01T00:49:48;11.88;;;3.95;;
54139;SDS011;40046;53.254;5.900;2023-08-01T00:52:15;14.80;;;4.20;;
54139;SDS011;40046;53.254;5.900;2023-08-01T00:54:41;12.85;;;3.92;;
54139;SDS011;40046;53.254;5.900;2023-08-01T00:57:07;11.68;;;4.47;;
54139;SDS011;40046;53.254;5.900;2023-08-01T00:59:34;10.55;;;4.43;;
54139;SDS011;40046;53.254;5.900;2023-08-01T01:02:00;11.27;;;4.32;;
54139;SDS011;40046;53.254;5.900;2023-08-01T01:04:27;12.43;;;4.00;;
54139;SDS011;40046;53.254;5.900;2023-08-01T01:07:03;12.18;;;3.60;;
54139;SDS011;40046;53.254;5.900;2023-08-01T01:09:30;11.43;;;4.38;;
54139;SDS011;40046;53.254;5.900;2023-08-01T01:11:59;11.85;;;4.97;;
54139;SDS011;40046;53.254;5.900;2023-08-01T01:14:29;11.05;;;3.70;;
54139;SDS011;40046;53.254;5.900;2023-08-01T01:16:55;9.27;;;3.25;;
54139;SDS011;40046;53.254;5.900;2023-08-01T01:19:21;12.90;;;5.55;;
54139;SDS011;40046;53.254;5.900;2023-08-01T01:21:47;9.40;;;4.50;;
54139;SDS011;40046;53.254;5.900;2023-08-01T01:24:14;7.85;;;3.45;;
54139;SDS011;40046;53.254;5.900;2023-08-01T01:26:41;14.82;;;3.85;;
54139;SDS011;40046;53.254;5.900;2023-08-01T01:29:08;11.13;;;4.35;;
54139;SDS011;40046;53.254;5.900;2023-08-01T01:31:35;10.10;;;4.32;;
54139;SDS011;40046;53.254;5.900;2023-08-01T01:34:02;9.57;;;4.00;;
54139;SDS011;40046;53.254;5.900;2023-08-01T01:36:29;11.88;;;4.22;;
54139;SDS011;40046;53.254;5.900;2023-08-01T01:38:55;9.35;;;3.90;;
54139;SDS011;40046;53.254;5.900;2023-08-01T01:41:21;8.80;;;3.90;;
54139;SDS011;40046;53.254;5.900;2023-08-01T01:43:48;10.90;;;4.05;;
54139;SDS011;40046;53.254;5.900;2023-08-01T01:46:14;7.20;;;3.72;;
54139;SDS011;40046;53.254;5.900;2023-08-01T01:48:40;12.43;;;4.40;;
54139;SDS011;40046;53.254;5.900;2023-08-01T01:51:08;10.82;;;4.35;;
54139;SDS011;40046;53.254;5.900;2023-08-01T01:53:34;14.63;;;4.93;;
54139;SDS011;40046;53.254;5.900;2023-08-01T01:56:00;13.02;;;4.72;;
54139;SDS011;40046;53.254;5.900;2023-08-01T01:58:27;13.07;;;4.13;;
54139;SDS011;40046;53.254;5.900;2023-08-01T02:00:53;10.77;;;4.22;;
54139;SDS011;40046;53.254;5.900;2023-08-01T02:03:19;15.98;;;4.07;;
54139;SDS011;40046;53.254;5.900;2023-08-01T02:05:45;7.85;;;5.55;;
54139;SDS011;40046;53.254;5.900;2023-08-01T02:08:11;8.57;;;4.32;;
54139;SDS011;40046;53.254;5.900;2023-08-01T02:10:38;8.48;;;4.55;;
54139;SDS011;40046;53.254;5.900;2023-08-01T02:13:04;9.50;;;4.72;;
54139;SDS011;40046;53.254;5.900;2023-08-01T02:15:30;12.43;;;4.50;;
54139;SDS011;40046;53.254;5.900;2023-08-01T02:17:56;12.48;;;5.68;;
54139;SDS011;40046;53.254;5.900;2023-08-01T02:20:23;12.30;;;4.82;;
54139;SDS011;40046;53.254;5.900;2023-08-01T02:22:49;13.27;;;5.55;;
54139;SDS011;40046;53.254;5.900;2023-08-01T02:25:16;10.27;;;4.45;;
54139;SDS011;40046;53.254;5.900;2023-08-01T02:27:42;11.90;;;5.15;;
54139;SDS011;40046;53.254;5.900;2023-08-01T02:30:08;9.38;;;4.63;;
54139;SDS011;40046;53.254;5.900;2023-08-01T02:32:34;8.07;;;4.57;;
54139;SDS011;40046;53.254;5.900;2023-08-01T02:35:01;10.48;;;4.65;;
54139;SDS011;40046;53.254;5.900;2023-08-01T02:37:27;8.80;;;4.13;;
54139;SDS011;40046;53.254;5.900;2023-08-01T02:39:53;8.43;;;3.65;;
54139;SDS011;40046;53.254;5.900;2023-08-01T02:42:19;10.98;;;3.63;;
54139;SDS011;40046;53.254;5.900;2023-08-01T02:44:45;12.13;;;4.57;;
54139;SDS011;40046;53.254;5.900;2023-08-01T02:47:11;10.40;;;3.72;;
54139;SDS011;40046;53.254;5.900;2023-08-01T02:49:37;11.27;;;3.88;;
54139;SDS011;40046;53.254;5.900;2023-08-01T02:52:03;8.80;;;3.78;;
54139;SDS011;40046;53.254;5.900;2023-08-01T02:54:30;6.72;;;2.65;;
54139;SDS011;40046;53.254;5.900;2023-08-01T02:56:56;9.82;;;3.00;;
54139;SDS011;40046;53.254;5.900;2023-08-01T02:59:22;11.50;;;2.67;;
54139;SDS011;40046;53.254;5.900;2023-08-01T03:01:49;10.95;;;2.30;;
54139;SDS011;40046;53.254;5.900;2023-08-01T03:04:15;11.48;;;2.30;;
54139;SDS011;40046;53.254;5.900;2023-08-01T03:06:41;17.23;;;3.65;;
54139;SDS011;40046;53.254;5.900;2023-08-01T03:09:07;7.43;;;1.92;;
54139;SDS011;40046;53.254;5.900;2023-08-01T03:11:37;9.25;;;1.65;;
54139;SDS011;40046;53.254;5.900;2023-08-01T03:14:03;7.72;;;1.77;;
54139;SDS011;40046;53.254;5.900;2023-08-01T03:16:30;10.23;;;2.05;;
54139;SDS011;40046;53.254;5.900;2023-08-01T03:18:57;11.35;;;1.52;;
54139;SDS011;40046;53.254;5.900;2023-08-01T03:21:25;5.82;;;1.63;;
54139;SDS011;40046;53.254;5.900;2023-08-01T03:23:51;6.50;;;1.52;;
54139;SDS011;40046;53.254;5.900;2023-08-01T03:26:18;6.10;;;1.35;;
54139;SDS011;40046;53.254;5.900;2023-08-01T03:28:44;6.43;;;1.60;;
54139;SDS011;40046;53.254;5.900;2023-08-01T03:31:10;4.80;;;1.08;;
54139;SDS011;40046;53.254;5.900;2023-08-01T03:33:36;8.55;;;2.10;;
54139;SDS011;40046;53.254;5.900;2023-08-01T03:36:02;6.00;;;1.15;;
54139;SDS011;40046;53.254;5.900;2023-08-01T03:38:29;8.98;;;2.38;;
54139;SDS011;40046;53.254;5.900;2023-08-01T03:40:55;10.25;;;1.63;;
54139;SDS011;40046;53.254;5.900;2023-08-01T03:43:21;10.15;;;2.70;;
54139;SDS011;40046;53.254;5.900;2023-08-01T03:45:51;7.82;;;2.00;;
54139;SDS011;40046;53.254;5.900;2023-08-01T03:48:18;12.25;;;2.10;;
54139;SDS011;40046;53.254;5.900;2023-08-01T03:50:44;9.80;;;1.88;;
54139;SDS011;40046;53.254;5.900;2023-08-01T03:53:10;11.88;;;1.88;;
54139;SDS011;40046;53.254;5.900;2023-08-01T03:55:36;8.85;;;1.92;;
54139;SDS011;40046;53.254;5.900;2023-08-01T03:58:02;8.60;;;2.08;;
54139;SDS011;40046;53.254;5.900;2023-08-01T04:00:30;8.98;;;2.47;;
54139;SDS011;40046;53.254;5.900;2023-08-01T04:03:01;6.18;;;1.98;;
54139;SDS011;40046;53.254;5.900;2023-08-01T04:05:27;7.57;;;2.15;;
54139;SDS011;40046;53.254;5.900;2023-08-01T04:07:53;6.55;;;2.75;;
54139;SDS011;40046;53.254;5.900;2023-08-01T04:10:22;8.25;;;1.85;;
54139;SDS011;40046;53.254;5.900;2023-08-01T04:12:49;5.93;;;1.80;;
54139;SDS011;40046;53.254;5.900;2023-08-01T04:15:15;7.47;;;1.98;;
54139;SDS011;40046;53.254;5.900;2023-08-01T04:17:41;8.95;;;2.22;;
54139;SDS011;40046;53.254;5.900;2023-08-01T04:20:08;8.95;;;1.80;;
54139;SDS011;40046;53.254;5.900;2023-08-01T04:22:34;13.27;;;2.60;;
54139;SDS011;40046;53.254;5.900;2023-08-01T04:25:01;7.82;;;1.95;;
54139;SDS011;40046;53.254;5.900;2023-08-01T04:27:27;5.35;;;1.50;;
54139;SDS011;40046;53.254;5.900;2023-08-01T04:29:55;7.70;;;2.10;;
54139;SDS011;40046;53.254;5.900;2023-08-01T04:32:21;8.85;;;2.05;;
54139;SDS011;40046;53.254;5.900;2023-08-01T04:34:47;9.38;;;2.10;;
54139;SDS011;40046;53.254;5.900;2023-08-01T04:37:13;6.72;;;1.92;;
54139;SDS011;40046;53.254;5.900;2023-08-01T04:39:39;11.52;;;1.98;;
54139;SDS011;40046;53.254;5.900;2023-08-01T04:42:05;6.32;;;2.13;;
54139;SDS011;40046;53.254;5.900;2023-08-01T04:44:32;6.88;;;2.03;;
54139;SDS011;40046;53.254;5.900;2023-08-01T04:46:58;10.95;;;3.08;;
54139;SDS011;40046;53.254;5.900;2023-08-01T04:49:24;6.22;;;3.42;;
54139;SDS011;40046;53.254;5.900;2023-08-01T04:51:50;8.27;;;2.58;;
54139;SDS011;40046;53.254;5.900;2023-08-01T04:54:16;7.57;;;2.67;;
54139;SDS011;40046;53.254;5.900;2023-08-01T04:56:43;10.63;;;2.78;;
54139;SDS011;40046;53.254;5.900;2023-08-01T04:59:09;7.80;;;2.80;;
54139;SDS011;40046;53.254;5.900;2023-08-01T05:01:35;11.50;;;3.67;;
54139;SDS011;40046;53.254;5.900;2023-08-01T05:04:01;10.32;;;3.13;;
54139;SDS011;40046;53.254;5.900;2023-08-01T05:06:27;12.80;;;2.88;;
54139;SDS011;40046;53.254;5.900;2023-08-01T05:08:53;6.80;;;2.78;;
54139;SDS011;40046;53.254;5.900;2023-08-01T05:11:19;6.38;;;1.63;;
54139;SDS011;40046;53.254;5.900;2023-08-01T05:13:46;5.32;;;1.88;;
54139;SDS011;40046;53.254;5.900;2023-08-01T05:16:12;8.52;;;2.53;;
54139;SDS011;40046;53.254;5.900;2023-08-01T05:18:38;6.18;;;2.75;;
54139;SDS011;40046;53.254;5.900;2023-08-01T05:21:04;9.10;;;2.40;;
54139;SDS011;40046;53.254;5.900;2023-08-01T05:23:30;7.82;;;2.40;;
54139;SDS011;40046;53.254;5.900;2023-08-01T05:25:56;10.85;;;3.10;;
54139;SDS011;40046;53.254;5.900;2023-08-01T05:28:22;6.78;;;2.35;;
54139;SDS011;40046;53.254;5.900;2023-08-01T05:30:48;9.75;;;1.60;;
54139;SDS011;40046;53.254;5.900;2023-08-01T05:33:14;10.65;;;2.03;;
54139;SDS011;40046;53.254;5.900;2023-08-01T05:35:40;4.60;;;1.30;;
54139;SDS011;40046;53.254;5.900;2023-08-01T05:38:07;8.60;;;1.80;;
54139;SDS011;40046;53.254;5.900;2023-08-01T05:40:33;8.07;;;1.30;;
54139;SDS011;40046;53.254;5.900;2023-08-01T05:42:59;5.68;;;1.13;;
54139;SDS011;40046;53.254;5.900;2023-08-01T05:45:25;9.75;;;1.77;;
54139;SDS011;40046;53.254;5.900;2023-08-01T05:47:52;7.20;;;1.30;;
54139;SDS011;40046;53.254;5.900;2023-08-01T05:50:18;9.25;;;2.20;;
54139;SDS011;40046;53.254;5.900;2023-08-01T05:52:44;8.50;;;2.00;;
54139;SDS011;40046;53.254;5.900;2023-08-01T05:55:10;8.80;;;1.40;;
54139;SDS011;40046;53.254;5.900;2023-08-01T05:57:36;9.85;;;1.30;;
54139;SDS011;40046;53.254;5.900;2023-08-01T06:00:02;12.93;;;1.58;;
54139;SDS011;40046;53.254;5.900;2023-08-01T06:02:37;10.32;;;2.65;;
54139;SDS011;40046;53.254;5.900;2023-08-01T06:05:04;10.50;;;2.75;;
54139;SDS011;40046;53.254;5.900;2023-08-01T06:07:30;9.05;;;1.90;;
54139;SDS011;40046;53.254;5.900;2023-08-01T06:09:56;7.90;;;1.60;;
54139;SDS011;40046;53.254;5.900;2023-08-01T06:12:22;7.45;;;1.60;;
54139;SDS011;40046;53.254;5.900;2023-08-01T06:14:48;6.97;;;1.42;;
54139;SDS011;40046;53.254;5.900;2023-08-01T06:17:14;7.85;;;2.00;;
54139;SDS011;40046;53.254;5.900;2023-08-01T06:19:41;9.32;;;1.73;;
54139;SDS011;40046;53.254;5.900;2023-08-01T06:22:07;10.45;;;3.00;;
54139;SDS011;40046;53.254;5.900;2023-08-01T06:24:34;7.55;;;1.52;;
54139;SDS011;40046;53.254;5.900;2023-08-01T06:27:00;5.70;;;1.00;;
54139;SDS011;40046;53.254;5.900;2023-08-01T06:29:26;7.15;;;1.85;;
54139;SDS011;40046;53.254;5.900;2023-08-01T06:31:52;6.20;;;1.52;;
54139;SDS011;40046;53.254;5.900;2023-08-01T06:34:18;7.20;;;1.13;;
54139;SDS011;40046;53.254;5.900;2023-08-01T06:36:44;8.40;;;1.90;;
54139;SDS011;40046;53.254;5.900;2023-08-01T06:39:10;6.40;;;1.25;;
54139;SDS011;40046;53.254;5.900;2023-08-01T06:41:36;9.98;;;1.67;;
54139;SDS011;40046;53.254;5.900;2023-08-01T06:44:03;8.25;;;1.88;;
54139;SDS011;40046;53.254;5.900;2023-08-01T06:46:29;7.65;;;1.73;;
54139;SDS011;40046;53.254;5.900;2023-08-01T06:48:55;9.63;;;1.50;;
54139;SDS011;40046;53.254;5.900;2023-08-01T06:51:22;12.43;;;2.10;;
54139;SDS011;40046;53.254;5.900;2023-08-01T06:53:48;6.95;;;1.98;;
54139;SDS011;40046;53.254;5.900;2023-08-01T06:56:14;4.32;;;1.25;;
54139;SDS011;40046;53.254;5.900;2023-08-01T06:58:40;13.90;;;2.15;;
54139;SDS011;40046;53.254;5.900;2023-08-01T07:01:06;5.47;;;1.77;;
54139;SDS011;40046;53.254;5.900;2023-08-01T07:03:32;10.55;;;1.77;;
54139;SDS011;40046;53.254;5.900;2023-08-01T07:05:58;8.13;;;2.05;;
54139;SDS011;40046;53.254;5.900;2023-08-01T07:08:24;11.98;;;3.38;;
54139;SDS011;40046;53.254;5.900;2023-08-01T07:10:50;7.22;;;1.63;;
54139;SDS011;40046;53.254;5.900;2023-08-01T07:13:16;12.70;;;1.80;;
54139;SDS011;40046;53.254;5.900;2023-08-01T07:15:44;8.77;;;1.65;;
54139;SDS011;40046;53.254;5.900;2023-08-01T07:18:11;9.20;;;3.10;;
54139;SDS011;40046;53.254;5.900;2023-08-01T07:20:37;7.57;;;1.88;;
54139;SDS011;40046;53.254;5.900;2023-08-01T07:23:03;10.30;;;1.77;;
54139;SDS011;40046;53.254;5.900;2023-08-01T07:25:29;9.15;;;1.67;;
54139;SDS011;40046;53.254;5.900;2023-08-01T07:27:55;8.25;;;1.52;;
54139;SDS011;40046;53.254;5.900;2023-08-01T07:30:21;11.10;;;2.33;;
54139;SDS011;40046;53.254;5.900;2023-08-01T07:32:47;8.73;;;1.58;;
54139;SDS011;40046;53.254;5.900;2023-08-01T07:35:14;8.70;;;2.15;;
54139;SDS011;40046;53.254;5.900;2023-08-01T07:37:40;5.78;;;1.40;;
54139;SDS011;40046;53.254;5.900;2023-08-01T07:40:06;14.35;;;2.78;;
54139;SDS011;40046;53.254;5.900;2023-08-01T07:42:32;5.75;;;1.30;;
54139;SDS011;40046;53.254;5.900;2023-08-01T07:44:58;5.47;;;1.15;;
54139;SDS011;40046;53.254;5.900;2023-08-01T07:47:25;8.93;;;1.83;;
54139;SDS011;40046;53.254;5.900;2023-08-01T07:49:51;7.82;;;2.00;;
54139;SDS011;40046;53.254;5.900;2023-08-01T07:52:17;5.88;;;1.65;;
54139;SDS011;40046;53.254;5.900;2023-08-01T07:54:43;7.75;;;1.80;;
54139;SDS011;40046;53.254;5.900;2023-08-01T07:57:09;10.60;;;2.30;;
54139;SDS011;40046;53.254;5.900;2023-08-01T07:59:36;12.95;;;2.97;;
54139;SDS011;40046;53.254;5.900;2023-08-01T08:02:02;9.88;;;1.98;;
54139;SDS011;40046;53.254;5.900;2023-08-01T08:04:28;20.00;;;2.78;;
54139;SDS011;40046;53.254;5.900;2023-08-01T08:06:54;9.98;;;2.92;;
54139;SDS011;40046;53.254;5.900;2023-08-01T08:09:24;9.15;;;1.65;;
54139;SDS011;40046;53.254;5.900;2023-08-01T08:11:51;9.60;;;2.22;;
54139;SDS011;40046;53.254;5.900;2023-08-01T08:14:17;12.43;;;2.15;;
54139;SDS011;40046;53.254;5.900;2023-08-01T08:16:45;9.95;;;2.70;;
54139;SDS011;40046;53.254;5.900;2023-08-01T08:19:11;8.70;;;1.83;;
54139;SDS011;40046;53.254;5.900;2023-08-01T08:21:37;4.95;;;1.48;;
54139;SDS011;40046;53.254;5.900;2023-08-01T08:24:04;5.78;;;1.20;;
54139;SDS011;40046;53.254;5.900;2023-08-01T08:26:30;5.53;;;1.10;;
54139;SDS011;40046;53.254;5.900;2023-08-01T08:28:56;14.90;;;1.90;;
54139;SDS011;40046;53.254;5.900;2023-08-01T08:31:22;5.18;;;1.58;;
54139;SDS011;40046;53.254;5.900;2023-08-01T08:33:48;6.00;;;1.05;;
54139;SDS011;40046;53.254;5.900;2023-08-01T08:36:14;3.40;;;0.80;;
54139;SDS011;40046;53.254;5.900;2023-08-01T08:38:40;6.95;;;1.85;;
54139;SDS011;40046;53.254;5.900;2023-08-01T08:41:13;6.65;;;0.90;;
54139;SDS011;40046;53.254;5.900;2023-08-01T08:43:40;5.93;;;1.00;;
54139;SDS011;40046;53.254;5.900;2023-08-01T08:46:08;5.55;;;1.15;;
54139;SDS011;40046;53.254;5.900;2023-08-01T08:48:34;6.13;;;1.17;;
54139;SDS011;40046;53.254;5.900;2023-08-01T08:51:01;8.50;;;2.17;;
54139;SDS011;40046;53.254;5.900;2023-08-01T08:53:28;7.43;;;1.52;;
54139;SDS011;40046;53.254;5.900;2023-08-01T08:55:55;6.22;;;1.42;;
54139;SDS011;40046;53.254;5.900;2023-08-01T08:58:21;10.82;;;2.03;;
54139;SDS011;40046;53.254;5.900;2023-08-01T09:00:48;6.90;;;1.75;;
54139;SDS011;40046;53.254;5.900;2023-08-01T09:03:15;10.25;;;1.88;;
54139;SDS011;40046;53.254;5.900;2023-08-01T09:05:45;7.68;;;1.92;;
54139;SDS011;40046;53.254;5.900;2023-08-01T09:08:15;6.70;;;1.60;;
54139;SDS011;40046;53.254;5.900;2023-08-01T09:10:42;5.82;;;2.25;;
54139;SDS011;40046;53.254;5.900;2023-08-01T09:13:08;5.88;;;1.30;;
54139;SDS011;40046;53.254;5.900;2023-08-01T09:15:34;6.13;;;1.65;;
54139;SDS011;40046;53.254;5.900;2023-08-01T09:18:01;9.90;;;2.38;;
54139;SDS011;40046;53.254;5.900;2023-08-01T09:20:39;6.22;;;1.35;;
54139;SDS011;40046;53.254;5.900;2023-08-01T09:23:07;5.78;;;1.33;;
54139;SDS011;40046;53.254;5.900;2023-08-01T09:25:34;10.30;;;1.55;;
54139;SDS011;40046;53.254;5.900;2023-08-01T09:28:01;8.82;;;1.48;;
54139;SDS011;40046;53.254;5.900;2023-08-01T09:30:27;9.05;;;1.23;;
54139;SDS011;40046;53.254;5.900;2023-08-01T09:32:54;8.30;;;1.77;;
54139;SDS011;40046;53.254;5.900;2023-08-01T09:35:20;8.68;;;2.40;;
54139;SDS011;40046;53.254;5.900;2023-08-01T09:37:46;8.98;;;2.13;;
54139;SDS011;40046;53.254;5.900;2023-08-01T09:40:13;8.70;;;2.25;;
54139;SDS011;40046;53.254;5.900;2023-08-01T09:42:45;8.40;;;2.00;;
54139;SDS011;40046;53.254;5.900;2023-08-01T09:47:38;6.93;;;1.60;;
54139;SDS011;40046;53.254;5.900;2023-08-01T09:50:05;9.52;;;2.25;;
54139;SDS011;40046;53.254;5.900;2023-08-01T09:52:31;9.80;;;1.95;;
54139;SDS011;40046;53.254;5.900;2023-08-01T09:54:57;7.85;;;1.25;;
54139;SDS011;40046;53.254;5.900;2023-08-01T09:57:23;5.40;;;1.13;;
54139;SDS011;40046;53.254;5.900;2023-08-01T09:59:55;8.02;;;1.85;;
54139;SDS011;40046;53.254;5.900;2023-08-01T10:02:23;6.38;;;1.45;;
54139;SDS011;40046;53.254;5.900;2023-08-01T10:04:49;9.23;;;1.50;;
54139;SDS011;40046;53.254;5.900;2023-08-01T10:07:17;8.88;;;1.73;;
54139;SDS011;40046;53.254;5.900;2023-08-01T10:09:46;7.85;;;1.67;;
54139;SDS011;40046;53.254;5.900;2023-08-01T10:12:13;10.27;;;2.25;;
54139;SDS011;40046;53.254;5.900;2023-08-01T10:14:41;9.82;;;2.08;;
54139;SDS011;40046;53.254;5.900;2023-08-01T10:17:07;9.27;;;1.67;;
54139;SDS011;40046;53.254;5.900;2023-08-01T10:19:35;7.60;;;1.88;;
54139;SDS011;40046;53.254;5.900;2023-08-01T10:22:01;8.18;;;1.58;;
54139;SDS011;40046;53.254;5.900;2023-08-01T10:24:28;8.82;;;1.35;;
54139;SDS011;40046;53.254;5.900;2023-08-01T10:26:55;5.15;;;1.17;;
54139;SDS011;40046;53.254;5.900;2023-08-01T10:29:21;9.38;;;1.90;;
54139;SDS011;40046;53.254;5.900;2023-08-01T10:31:51;7.72;;;1.30;;
54139;SDS011;40046;53.254;5.900;2023-08-01T10:34:17;8.50;;;2.38;;
54139;SDS011;40046;53.254;5.900;2023-08-01T10:36:56;9.40;;;2.15;;
54139;SDS011;40046;53.254;5.900;2023-08-01T10:39:23;10.65;;;2.03;;
54139;SDS011;40046;53.254;5.900;2023-08-01T10:41:59;9.98;;;2.33;;
54139;SDS011;40046;53.254;5.900;2023-08-01T10:44:26;6.72;;;1.40;;
54139;SDS011;40046;53.254;5.900;2023-08-01T10:46:56;5.95;;;1.25;;
54139;SDS011;40046;53.254;5.900;2023-08-01T10:52:19;6.47;;;1.60;;
54139;SDS011;40046;53.254;5.900;2023-08-01T10:54:46;6.35;;;1.90;;
54139;SDS011;40046;53.254;5.900;2023-08-01T10:57:16;7.05;;;2.08;;
54139;SDS011;40046;53.254;5.900;2023-08-01T10:59:43;9.10;;;1.58;;
54139;SDS011;40046;53.254;5.900;2023-08-01T11:02:09;10.38;;;2.60;;
54139;SDS011;40046;53.254;5.900;2023-08-01T11:04:36;8.00;;;1.75;;
54139;SDS011;40046;53.254;5.900;2023-08-01T11:07:03;7.38;;;0.98;;
54139;SDS011;40046;53.254;5.900;2023-08-01T11:09:30;6.00;;;1.65;;
54139;SDS011;40046;53.254;5.900;2023-08-01T11:11:57;4.70;;;1.17;;
54139;SDS011;40046;53.254;5.900;2023-08-01T11:14:24;10.27;;;1.83;;
54139;SDS011;40046;53.254;5.900;2023-08-01T11:16:51;5.15;;;1.88;;
54139;SDS011;40046;53.254;5.900;2023-08-01T11:19:24;9.43;;;1.73;;
54139;SDS011;40046;53.254;5.900;2023-08-01T11:21:50;9.48;;;1.88;;
54139;SDS011;40046;53.254;5.900;2023-08-01T11:24:18;9.32;;;1.70;;
54139;SDS011;40046;53.254;5.900;2023-08-01T11:26:45;4.30;;;1.42;;
54139;SDS011;40046;53.254;5.900;2023-08-01T11:29:11;7.78;;;1.90;;
54139;SDS011;40046;53.254;5.900;2023-08-01T11:31:38;8.75;;;1.95;;
54139;SDS011;40046;53.254;5.900;2023-08-01T11:34:04;6.40;;;1.90;;
54139;SDS011;40046;53.254;5.900;2023-08-01T11:36:33;4.13;;;1.52;;
54139;SDS011;40046;53.254;5.900;2023-08-01T11:38:59;9.68;;;1.73;;
54139;SDS011;40046;53.254;5.900;2023-08-01T11:41:26;6.45;;;1.35;;
54139;SDS011;40046;53.254;5.900;2023-08-01T11:43:52;10.60;;;1.77;;
54139;SDS011;40046;53.254;5.900;2023-08-01T11:46:22;6.65;;;1.23;;
54139;SDS011;40046;53.254;5.900;2023-08-01T11:48:48;5.32;;;1.45;;
54139;SDS011;40046;53.254;5.900;2023-08-01T11:51:17;7.85;;;1.70;;
54139;SDS011;40046;53.254;5.900;2023-08-01T11:53:43;6.47;;;1.27;;
54139;SDS011;40046;53.254;5.900;2023-08-01T11:56:19;10.88;;;1.98;;
54139;SDS011;40046;53.254;5.900;2023-08-01T11:58:46;5.25;;;1.58;;
54139;SDS011;40046;53.254;5.900;2023-08-01T12:01:13;6.38;;;1.40;;
54139;SDS011;40046;53.254;5.900;2023-08-01T12:06:09;7.13;;;1.70;;
54139;SDS011;40046;53.254;5.900;2023-08-01T12:08:37;7.97;;;1.92;;
54139;SDS011;40046;53.254;5.900;2023-08-01T12:11:03;12.90;;;2.00;;
54139;SDS011;40046;53.254;5.900;2023-08-01T12:13:29;6.90;;;2.15;;
54139;SDS011;40046;53.254;5.900;2023-08-01T12:15:56;11.63;;;2.47;;
54139;SDS011;40046;53.254;5.900;2023-08-01T12:21:03;4.82;;;0.90;;
54139;SDS011;40046;53.254;5.900;2023-08-01T12:23:31;6.80;;;1.83;;
54139;SDS011;40046;53.254;5.900;2023-08-01T12:25:57;7.35;;;1.95;;
54139;SDS011;40046;53.254;5.900;2023-08-01T12:28:23;4.03;;;1.58;;
54139;SDS011;40046;53.254;5.900;2023-08-01T12:30:49;7.38;;;0.85;;
54139;SDS011;40046;53.254;5.900;2023-08-01T12:33:16;8.45;;;1.38;;
54139;SDS011;40046;53.254;5.900;2023-08-01T12:35:42;7.30;;;1.42;;
54139;SDS011;40046;53.254;5.900;2023-08-01T12:38:09;5.55;;;1.40;;
54139;SDS011;40046;53.254;5.900;2023-08-01T12:40:35;4.40;;;1.25;;
54139;SDS011;40046;53.254;5.900;2023-08-01T12:43:01;7.63;;;2.17;;
54139;SDS011;40046;53.254;5.900;2023-08-01T12:45:28;7.40;;;1.42;;
54139;SDS011;40046;53.254;5.900;2023-08-01T12:47:54;6.85;;;1.92;;
54139;SDS011;40046;53.254;5.900;2023-08-01T12:50:20;8.25;;;1.60;;
54139;SDS011;40046;53.254;5.900;2023-08-01T12:52:46;11.20;;;2.00;;
54139;SDS011;40046;53.254;5.900;2023-08-01T12:55:12;10.32;;;2.35;;
54139;SDS011;40046;53.254;5.900;2023-08-01T12:57:38;7.90;;;1.52;;
54139;SDS011;40046;53.254;5.900;2023-08-01T13:00:04;9.48;;;1.88;;
54139;SDS011;40046;53.254;5.900;2023-08-01T13:02:31;6.65;;;1.48;;
54139;SDS011;40046;53.254;5.900;2023-08-01T13:04:57;4.90;;;1.05;;
54139;SDS011;40046;53.254;5.900;2023-08-01T13:07:23;4.90;;;1.05;;
54139;SDS011;40046;53.254;5.900;2023-08-01T13:09:49;5.43;;;1.30;;
54139;SDS011;40046;53.254;5.900;2023-08-01T13:12:15;6.65;;;1.60;;
54139;SDS011;40046;53.254;5.900;2023-08-01T13:14:41;5.20;;;1.10;;
54139;SDS011;40046;53.254;5.900;2023-08-01T13:17:07;9.82;;;2.25;;
54139;SDS011;40046;53.254;5.900;2023-08-01T13:19:33;7.93;;;1.48;;
54139;SDS011;40046;53.254;5.900;2023-08-01T13:22:00;7.85;;;1.67;;
54139;SDS011;40046;53.254;5.900;2023-08-01T13:24:26;8.18;;;1.60;;
54139;SDS011;40046;53.254;5.900;2023-08-01T13:26:52;6.82;;;1.45;;
54139;SDS011;40046;53.254;5.900;2023-08-01T13:29:18;9.38;;;1.45;;
54139;SDS011;40046;53.254;5.900;2023-08-01T13:31:44;8.07;;;1.80;;
54139;SDS011;40046;53.254;5.900;2023-08-01T13:34:10;8.80;;;1.45;;
54139;SDS011;40046;53.254;5.900;2023-08-01T13:36:37;7.97;;;2.03;;
54139;SDS011;40046;53.254;5.900;2023-08-01T13:39:03;5.13;;;1.25;;
54139;SDS011;40046;53.254;5.900;2023-08-01T13:41:29;7.53;;;1.95;;
54139;SDS011;40046;53.254;5.900;2023-08-01T13:43:55;7.75;;;1.45;;
54139;SDS011;40046;53.254;5.900;2023-08-01T13:46:21;4.65;;;1.10;;
54139;SDS011;40046;53.254;5.900;2023-08-01T13:48:47;7.25;;;1.60;;
54139;SDS011;40046;53.254;5.900;2023-08-01T13:51:13;8.23;;;1.55;;
54139;SDS011;40046;53.254;5.900;2023-08-01T13:53:40;8.13;;;2.22;;
54139;SDS011;40046;53.254;5.900;2023-08-01T13:56:10;5.65;;;1.45;;
54139;SDS011;40046;53.254;5.900;2023-08-01T13:58:37;5.78;;;1.33;;
54139;SDS011;40046;53.254;5.900;2023-08-01T14:01:07;5.18;;;1.13;;
54139;SDS011;40046;53.254;5.900;2023-08-01T14:03:34;6.93;;;1.60;;
54139;SDS011;40046;53.254;5.900;2023-08-01T14:06:04;5.03;;;1.30;;
54139;SDS011;40046;53.254;5.900;2023-08-01T14:08:30;4.65;;;1.30;;
54139;SDS011;40046;53.254;5.900;2023-08-01T14:10:57;4.45;;;1.10;;
54139;SDS011;40046;53.254;5.900;2023-08-01T14:13:23;3.88;;;1.13;;
54139;SDS011;40046;53.254;5.900;2023-08-01T14:15:49;5.28;;;1.55;;
54139;SDS011;40046;53.254;5.900;2023-08-01T14:18:16;5.22;;;1.13;;
54139;SDS011;40046;53.254;5.900;2023-08-01T14:20:43;4.75;;;0.77;;
54139;SDS011;40046;53.254;5.900;2023-08-01T14:23:09;5.18;;;1.08;;
54139;SDS011;40046;53.254;5.900;2023-08-01T14:25:35;6.05;;;1.98;;
54139;SDS011;40046;53.254;5.900;2023-08-01T14:28:01;7.60;;;1.60;;
54139;SDS011;40046;53.254;5.900;2023-08-01T14:30:27;6.97;;;1.65;;
54139;SDS011;40046;53.254;5.900;2023-08-01T14:33:00;8.27;;;2.05;;
54139;SDS011;40046;53.254;5.900;2023-08-01T14:35:26;7.35;;;1.75;;
54139;SDS011;40046;53.254;5.900;2023-08-01T14:37:52;5.50;;;1.98;;
54139;SDS011;40046;53.254;5.900;2023-08-01T14:40:20;8.02;;;1.42;;
54139;SDS011;40046;53.254;5.900;2023-08-01T14:42:46;7.03;;;1.20;;
54139;SDS011;40046;53.254;5.900;2023-08-01T14:45:13;7.82;;;1.52;;
54139;SDS011;40046;53.254;5.900;2023-08-01T14:47:39;7.15;;;1.15;;
54139;SDS011;40046;53.254;5.900;2023-08-01T14:50:07;3.00;;;0.90;;